Time;durP1;ratioP1;P1;durP2;ratioP2;P2;SDS_P1;SDS_P2;PMS_P1;PMS_P2;Temp;Humidity;BMP_temperature;BMP_pressure;BME280_temperature;BME280_humidity;BME280_pressure;Samples;Min_cycle;Max_cycle;Signal;HPM_P1;HPM_P2
2022/05/31 00:00:22;;;;;;;8.82;4.35;;;;;;;15.17;72.13;93469.06;5110582;28;20043;-48
2022/05/31 00:02:47;;;;;;;6.90;4.07;;;;;;;15.15;71.97;93480.03;5110239;28;20027;-50
2022/05/31 00:05:13;;;;;;;7.57;4.30;;;;;;;14.89;72.20;93486.34;5108899;28;20111;-47
2022/05/31 00:07:40;;;;;;;5.00;3.45;;;;;;;14.86;71.99;93476.34;5110415;28;20062;-48
2022/05/31 00:10:06;;;;;;;5.72;4.00;;;;;;;14.93;71.52;93505.38;5110394;28;20102;-48
2022/05/31 00:12:32;;;;;;;6.80;3.97;;;;;;;14.85;71.50;93511.03;5110446;28;20038;-47
2022/05/31 00:14:58;;;;;;;4.88;3.83;;;;;;;14.77;72.00;93509.66;5101181;28;20028;-47
2022/05/31 00:17:24;;;;;;;8.40;4.07;;;;;;;14.82;72.43;93506.63;5089660;28;20061;-48
2022/05/31 00:19:49;;;;;;;7.18;4.57;;;;;;;14.72;73.15;93511.38;5089803;28;20408;-50
2022/05/31 00:22:18;;;;;;;7.63;4.32;;;;;;;14.76;74.11;93510.97;5089703;28;20028;-48
2022/05/31 00:24:43;;;;;;;8.10;4.28;;;;;;;14.70;74.20;93493.81;5090068;28;20055;-48
2022/05/31 00:27:12;;;;;;;5.75;4.13;;;;;;;14.82;73.46;93503.09;5089834;28;20070;-48
2022/05/31 00:29:37;;;;;;;7.38;5.00;;;;;;;14.82;73.00;93498.28;5089650;28;20058;-47
2022/05/31 00:32:06;;;;;;;10.75;4.22;;;;;;;14.81;72.94;93493.31;5092739;28;20068;-50
2022/05/31 00:34:32;;;;;;;7.05;4.43;;;;;;;14.86;72.74;93495.81;5092381;28;20055;-47
2022/05/31 00:36:58;;;;;;;10.32;4.82;;;;;;;14.80;72.85;93498.13;5091933;28;20046;-47
2022/05/31 00:39:24;;;;;;;7.78;4.47;;;;;;;14.80;73.39;93498.13;5093399;28;20110;-47
2022/05/31 00:42:17;;;;;;;10.13;4.78;;;;;;;14.74;74.02;93500.44;5093079;28;20054;-48
2022/05/31 00:44:43;;;;;;;6.75;4.13;;;;;;;14.65;74.15;93503.13;5096506;28;20063;-48
2022/05/31 00:47:14;;;;;;;6.57;4.05;;;;;;;14.37;74.51;93498.81;5113557;28;20477;-47
2022/05/31 00:49:45;;;;;;;6.68;4.70;;;;;;;14.50;75.26;93504.03;5113435;28;20077;-49
2022/05/31 00:52:17;;;;;;;10.20;4.13;;;;;;;14.48;74.60;93501.09;5112349;28;20044;-47
2022/05/31 00:55:00;;;;;;;5.95;3.80;;;;;;;14.50;74.16;93492.19;5112071;28;20659;-49
2022/05/31 00:57:27;;;;;;;5.00;4.50;;;;;;;14.37;75.14;93496.78;5113103;28;20030;-48
2022/05/31 00:59:55;;;;;;;9.00;4.30;;;;;;;14.42;74.02;93493.00;5113032;27;20023;-48
2022/05/31 01:02:21;;;;;;;5.75;3.97;;;;;;;14.43;73.74;93471.53;5113584;28;20027;-46
2022/05/31 01:04:53;;;;;;;8.75;4.28;;;;;;;14.56;73.79;93490.63;5113309;28;20028;-49
2022/05/31 01:07:19;;;;;;;7.03;4.63;;;;;;;14.42;74.11;93486.75;5111995;28;20445;-49
2022/05/31 01:09:44;;;;;;;7.85;4.18;;;;;;;14.44;74.60;93498.72;5112882;28;20024;-47
2022/05/31 01:12:10;;;;;;;7.35;4.13;;;;;;;14.23;74.09;93497.63;5111974;28;20023;-47
2022/05/31 01:14:38;;;;;;;7.32;4.38;;;;;;;14.38;73.91;93497.50;5106949;28;20076;-47
2022/05/31 01:17:09;;;;;;;6.00;4.72;;;;;;;14.51;73.63;93504.78;5092187;28;20051;-50
2022/05/31 01:22:18;;;;;;;6.15;4.15;;;;;;;14.19;74.35;93502.88;5092611;28;20035;-47
2022/05/31 01:24:56;;;;;;;4.95;4.25;;;;;;;14.06;75.21;93501.16;5092544;28;20412;-46
2022/05/31 01:27:41;;;;;;;6.75;4.95;;;;;;;14.14;75.05;93495.53;5091259;28;20096;-47
2022/05/31 01:30:09;;;;;;;8.45;4.53;;;;;;;14.20;74.55;93499.53;5090944;28;20704;-49
2022/05/31 01:32:39;;;;;;;9.88;4.65;;;;;;;14.18;75.51;93491.03;5092097;28;20492;-47
2022/05/31 01:35:19;;;;;;;9.80;5.30;;;;;;;14.12;75.90;93493.31;5091150;28;20024;-46
2022/05/31 01:37:49;;;;;;;10.45;4.05;;;;;;;14.17;74.71;93494.38;5092385;28;20038;-46
2022/05/31 01:40:26;;;;;;;5.70;5.10;;;;;;;14.20;74.66;93487.69;5091922;28;20036;-47
2022/05/31 01:42:52;;;;;;;5.97;4.50;;;;;;;14.17;74.81;93492.34;5090953;28;20028;-50
2022/05/31 01:45:26;;;;;;;9.25;4.55;;;;;;;14.25;74.16;93484.66;5091764;28;20400;-46
2022/05/31 01:47:57;;;;;;;6.00;4.55;;;;;;;14.26;73.74;93480.59;5092074;28;20024;-49
2022/05/31 01:50:23;;;;;;;16.45;5.18;;;;;;;13.93;74.07;93470.19;5092098;28;20094;-46
2022/05/31 01:52:49;;;;;;;7.90;4.30;;;;;;;14.04;73.88;93478.03;5091940;28;20032;-49
2022/05/31 01:55:15;;;;;;;6.10;4.18;;;;;;;14.04;73.94;93483.59;5090753;28;20047;-46
2022/05/31 01:57:43;;;;;;;6.72;4.63;;;;;;;14.00;74.29;93486.78;5110888;28;20448;-48
2022/05/31 02:00:11;;;;;;;8.18;4.65;;;;;;;13.81;74.85;93494.19;5110716;28;20027;-48
2022/05/31 02:02:36;;;;;;;7.93;5.25;;;;;;;13.70;76.02;93481.50;5111040;28;20051;-47
2022/05/31 02:05:02;;;;;;;7.68;5.28;;;;;;;13.77;76.03;93483.50;5111877;28;20529;-48
2022/05/31 02:07:28;;;;;;;6.22;4.50;;;;;;;13.91;75.65;93489.44;5111990;28;20032;-48
2022/05/31 02:09:54;;;;;;;5.20;4.40;;;;;;;13.76;75.05;93472.94;5112016;28;20019;-48
2022/05/31 02:12:22;;;;;;;5.05;4.50;;;;;;;13.94;75.27;93500.16;5111593;28;20032;-50
2022/05/31 02:14:48;;;;;;;7.35;4.50;;;;;;;13.82;75.50;93498.44;5104187;28;20031;-49
2022/05/31 02:17:16;;;;;;;6.90;4.43;;;;;;;13.87;73.94;93494.69;5090883;28;20048;-47
2022/05/31 02:19:42;;;;;;;7.72;4.70;;;;;;;13.94;73.93;93493.88;5091556;28;20074;-47
2022/05/31 02:22:14;;;;;;;8.73;4.32;;;;;;;13.89;74.09;93497.63;5091342;28;20020;-49
2022/05/31 02:24:40;;;;;;;6.60;5.22;;;;;;;13.84;74.28;93493.78;5091448;28;20020;-47
2022/05/31 02:27:07;;;;;;;9.68;5.00;;;;;;;13.81;74.38;93499.72;5091256;28;20074;-48
2022/05/31 02:29:34;;;;;;;9.48;5.25;;;;;;;13.69;74.85;93505.00;5091295;28;20024;-50
2022/05/31 02:32:02;;;;;;;5.40;4.35;;;;;;;13.68;75.05;93509.09;5091275;28;20507;-47
2022/05/31 02:34:30;;;;;;;9.88;5.10;;;;;;;13.61;75.26;93509.88;5091255;28;20074;-48
2022/05/31 02:36:56;;;;;;;9.80;5.47;;;;;;;13.66;74.55;93517.25;5091194;28;20016;-49
2022/05/31 02:39:22;;;;;;;6.63;5.30;;;;;;;13.55;75.10;93512.91;5091195;28;20020;-49
2022/05/31 02:41:48;;;;;;;7.55;6.13;;;;;;;13.42;76.01;93515.97;5090846;28;20496;-48
2022/05/31 02:44:13;;;;;;;9.63;7.93;;;;;;;13.30;76.47;93528.78;5091976;28;20077;-47
2022/05/31 02:46:39;;;;;;;9.32;7.32;;;;;;;13.46;76.36;93523.88;5111384;27;20110;-48
2022/05/31 02:49:05;;;;;;;10.07;6.93;;;;;;;13.55;75.41;93526.78;5111324;28;20016;-47
2022/05/31 02:51:39;;;;;;;9.65;6.93;;;;;;;13.56;75.73;93527.47;5111280;28;20024;-49
2022/05/31 02:54:05;;;;;;;10.60;6.78;;;;;;;13.46;75.90;93526.66;5090215;28;20119;-49
2022/05/31 02:56:31;;;;;;;7.50;6.20;;;;;;;13.35;76.14;93530.59;5090682;28;20562;-47
2022/05/31 02:58:57;;;;;;;7.82;6.25;;;;;;;13.42;75.77;93535.38;5090892;28;20016;-47
2022/05/31 03:01:31;;;;;;;7.50;5.95;;;;;;;13.44;75.64;93537.56;5090546;28;20425;-48
2022/05/31 03:03:57;;;;;;;9.90;5.90;;;;;;;13.34;75.49;93537.44;5090726;28;20039;-48
2022/05/31 03:06:23;;;;;;;6.63;5.80;;;;;;;13.34;75.41;93539.50;5090767;28;20028;-50
2022/05/31 03:08:48;;;;;;;11.13;5.75;;;;;;;13.27;76.21;93534.72;5090350;28;20028;-48
2022/05/31 03:11:19;;;;;;;7.47;5.72;;;;;;;13.34;75.97;93529.13;5090712;28;20077;-47
2022/05/31 03:13:46;;;;;;;10.63;5.40;;;;;;;13.36;74.83;93536.91;5090722;28;20020;-46
2022/05/31 03:16:12;;;;;;;10.30;5.63;;;;;;;13.31;74.42;93516.41;5109202;28;20020;-48
2022/05/31 03:18:40;;;;;;;7.07;5.75;;;;;;;13.36;74.61;93537.59;5109804;28;20019;-48
2022/05/31 03:21:10;;;;;;;9.52;5.40;;;;;;;13.33;75.10;93543.56;5110626;28;20512;-48
2022/05/31 03:23:44;;;;;;;7.38;4.90;;;;;;;13.29;75.47;93543.22;5110892;28;20103;-49
2022/05/31 03:26:12;;;;;;;6.72;5.57;;;;;;;13.39;75.60;93541.28;5109741;28;20111;-47
2022/05/31 03:28:38;;;;;;;14.13;6.32;;;;;;;13.49;75.78;93551.19;5109312;28;20500;-48
2022/05/31 03:31:03;;;;;;;7.72;5.53;;;;;;;13.54;75.64;93543.97;5109410;28;20028;-48
2022/05/31 03:33:29;;;;;;;8.13;5.18;;;;;;;13.53;75.44;93551.56;5109303;28;20031;-47
2022/05/31 03:35:55;;;;;;;6.70;5.68;;;;;;;13.39;75.44;93553.13;5110811;28;20024;-48
2022/05/31 03:38:20;;;;;;;7.10;5.50;;;;;;;13.19;76.20;93532.00;5110448;28;20055;-48
2022/05/31 03:40:58;;;;;;;7.47;6.35;;;;;;;13.42;76.08;93552.00;5110488;28;20019;-47
2022/05/31 03:43:35;;;;;;;7.57;6.17;;;;;;;13.49;75.67;93551.19;5110548;28;20499;-48
2022/05/31 03:46:00;;;;;;;6.60;5.57;;;;;;;13.55;75.20;93548.97;5110346;28;20050;-48
2022/05/31 03:48:27;;;;;;;9.75;5.75;;;;;;;13.50;75.17;93533.28;5110128;28;20497;-48
2022/05/31 03:50:58;;;;;;;9.77;6.57;;;;;;;13.47;75.80;93547.53;5110687;28;20026;-52
2022/05/31 03:53:24;;;;;;;7.40;5.78;;;;;;;13.55;75.70;93554.50;5110682;28;20039;-50
2022/05/31 03:55:49;;;;;;;7.70;5.90;;;;;;;13.56;76.26;93560.78;5110622;28;20159;-48
2022/05/31 03:58:15;;;;;;;8.57;5.72;;;;;;;13.69;76.32;93566.03;5110536;28;20015;-47
2022/05/31 04:00:40;;;;;;;10.30;5.78;;;;;;;13.75;76.77;93555.47;5110196;28;20456;-47
2022/05/31 04:03:06;;;;;;;6.35;5.70;;;;;;;13.89;76.10;93547.56;5109577;28;20099;-48
2022/05/31 04:05:31;;;;;;;6.40;5.80;;;;;;;13.90;76.55;93551.84;5110800;28;20547;-48
2022/05/31 04:08:02;;;;;;;25.02;7.05;;;;;;;13.95;77.38;93551.59;5114076;28;20076;-47
2022/05/31 04:10:29;;;;;;;9.10;6.38;;;;;;;13.93;77.38;93551.41;5114136;28;20516;-54
2022/05/31 04:12:55;;;;;;;9.27;6.10;;;;;;;14.01;77.40;93554.16;5114401;27;20027;-48
2022/05/31 04:15:20;;;;;;;12.73;6.43;;;;;;;14.02;77.63;93547.28;5102249;28;20482;-49
2022/05/31 04:17:45;;;;;;;10.60;6.53;;;;;;;13.97;78.40;93548.25;5093393;28;20040;-50
2022/05/31 04:20:11;;;;;;;12.02;7.07;;;;;;;13.85;79.53;93552.78;5093518;28;20020;-50
2022/05/31 04:22:36;;;;;;;13.23;7.53;;;;;;;13.95;80.30;93551.59;5093487;28;20020;-48
2022/05/31 04:25:02;;;;;;;13.45;7.15;;;;;;;14.22;79.17;93554.50;5093466;28;20020;-48
2022/05/31 04:27:28;;;;;;;8.13;7.00;;;;;;;14.32;78.65;93544.22;5093609;28;20031;-48
2022/05/31 04:29:54;;;;;;;8.35;6.65;;;;;;;14.48;78.26;93553.16;5093369;28;20020;-49
2022/05/31 04:32:20;;;;;;;10.07;5.95;;;;;;;14.45;78.63;93563.34;5093289;28;20051;-50
2022/05/31 04:34:45;;;;;;;19.23;7.07;;;;;;;14.53;78.63;93541.78;5093577;28;20095;-48
2022/05/31 04:37:12;;;;;;;9.93;6.78;;;;;;;14.65;78.86;93562.22;5093163;28;20477;-48
2022/05/31 04:39:37;;;;;;;10.40;6.72;;;;;;;14.68;79.52;93568.69;5093189;28;20017;-51
2022/05/31 04:42:03;;;;;;;8.35;6.15;;;;;;;14.84;78.95;93556.81;5093059;28;20016;-48
2022/05/31 04:44:28;;;;;;;12.52;6.72;;;;;;;15.01;79.11;93564.38;5095595;28;20034;-48
2022/05/31 04:46:54;;;;;;;7.68;6.70;;;;;;;15.22;78.80;93564.69;5113348;28;20020;-48
2022/05/31 04:49:20;;;;;;;12.10;7.32;;;;;;;15.31;79.04;93569.53;5113639;28;20027;-48
2022/05/31 05:03:41;;;;;;;10.02;7.07;;;;;;;16.50;74.49;93573.13;5128428;27;20615;-49
2022/05/31 05:06:09;;;;;;;12.23;6.20;;;;;;;16.60;74.88;93582.22;5128399;27;20667;-48
2022/05/31 05:08:35;;;;;;;14.88;7.40;;;;;;;16.68;74.75;93574.44;5128681;27;20038;-48
2022/05/31 05:11:01;;;;;;;7.60;6.90;;;;;;;16.72;74.56;93585.91;5128451;27;20084;-49
2022/05/31 05:13:28;;;;;;;9.93;6.63;;;;;;;16.89;75.25;93582.25;5128430;27;20641;-49
2022/05/31 05:15:55;;;;;;;6.93;6.00;;;;;;;16.88;75.21;93577.97;5128513;27;20444;-49
2022/05/31 05:18:21;;;;;;;7.18;6.18;;;;;;;16.98;75.56;93573.88;5128465;27;20091;-48
2022/05/31 05:20:46;;;;;;;8.20;5.82;;;;;;;16.98;75.81;93587.81;5128479;27;20453;-48
2022/05/31 05:23:12;;;;;;;9.90;6.72;;;;;;;17.04;75.38;93582.69;5128318;27;20028;-47
2022/05/31 05:25:37;;;;;;;10.82;6.32;;;;;;;17.13;75.38;93576.34;5124858;27;20511;-48
2022/05/31 05:30:38;;;;;;;10.63;6.53;;;;;;;17.10;75.14;93571.97;5107458;28;20108;-50
2022/05/31 05:30:49;;;;;;;14.48;7.07;;;;;;;17.15;75.65;93570.91;5107438;28;20061;-47
2022/05/31 05:33:14;;;;;;;7.60;6.60;;;;;;;17.21;75.43;93579.00;5107428;28;20031;-49
2022/05/31 05:35:40;;;;;;;9.57;6.00;;;;;;;17.37;75.75;93571.75;5107304;28;20089;-48
2022/05/31 05:38:06;;;;;;;7.13;5.28;;;;;;;17.55;73.41;93572.34;5107644;28;20027;-48
2022/05/31 05:40:32;;;;;;;6.90;5.68;;;;;;;17.73;73.35;93568.03;5108460;28;20553;-49
2022/05/31 05:42:58;;;;;;;6.25;5.65;;;;;;;17.86;73.31;93573.88;5127750;27;20023;-48
2022/05/31 05:45:23;;;;;;;5.68;4.75;;;;;;;17.96;71.71;93574.56;5127331;27;20024;-48
2022/05/31 05:47:49;;;;;;;8.05;4.95;;;;;;;18.09;71.79;93587.28;5127598;27;20039;-47
2022/05/31 05:50:15;;;;;;;8.82;5.20;;;;;;;18.22;71.40;93594.44;5127884;27;20118;-48
2022/05/31 05:52:40;;;;;;;9.30;5.65;;;;;;;18.34;71.06;93589.69;5127397;27;20030;-47
2022/05/31 05:55:07;;;;;;;20.13;5.82;;;;;;;18.44;70.94;93587.56;5127815;27;20107;-48
2022/05/31 05:57:32;;;;;;;8.63;5.43;;;;;;;18.49;70.92;93586.53;5127665;27;20028;-50
2022/05/31 05:59:58;;;;;;;7.68;5.22;;;;;;;18.54;69.34;93583.41;5127306;27;20102;-48
2022/05/31 06:02:31;;;;;;;8.45;4.78;;;;;;;18.60;69.83;93578.22;5126661;27;20092;-47
2022/05/31 06:05:19;;;;;;;8.05;4.68;;;;;;;18.78;69.68;93587.06;5113383;28;20028;-49
2022/05/31 06:07:59;;;;;;;6.53;5.28;;;;;;;18.83;69.07;93591.59;5113571;28;20027;-50
2022/05/31 06:10:48;;;;;;;7.03;4.90;;;;;;;18.84;68.34;93588.19;5113869;28;20024;-49
2022/05/31 06:13:28;;;;;;;8.32;4.97;;;;;;;19.00;68.91;93582.19;5113096;28;20071;-47
2022/05/31 06:15:55;;;;;;;5.03;4.53;;;;;;;19.14;69.01;93585.94;5113468;28;20031;-47
2022/05/31 06:18:24;;;;;;;11.15;4.95;;;;;;;19.18;68.43;93583.38;5112420;28;20034;-47
2022/05/31 06:20:51;;;;;;;;;;;;;;;19.36;68.69;93581.78;5112653;28;20546;-49
2022/05/31 06:23:16;;;;;;;5.88;4.63;;;;;;;19.46;68.62;93580.34;5113595;27;20299;-48
2022/05/31 06:25:41;;;;;;;6.65;4.88;;;;;;;19.62;67.66;93575.75;5113552;28;20103;-47
2022/05/31 06:28:07;;;;;;;4.88;4.32;;;;;;;19.85;66.86;93575.06;5113425;28;20015;-48
2022/05/31 06:30:33;;;;;;;8.77;4.72;;;;;;;19.99;65.61;93570.31;5113448;28;20026;-49
2022/05/31 06:32:58;;;;;;;7.25;4.15;;;;;;;20.22;64.18;93575.25;5113033;28;20090;-48
2022/05/31 06:35:23;;;;;;;4.53;3.97;;;;;;;20.71;62.83;93576.78;5112987;28;20058;-47
2022/05/31 06:37:49;;;;;;;8.57;4.05;;;;;;;21.11;61.15;93579.13;5102897;28;20024;-49
2022/05/31 06:40:15;;;;;;;6.93;3.45;;;;;;;21.82;58.47;93569.81;5092505;28;20024;-48
2022/05/31 06:42:41;;;;;;;6.15;4.25;;;;;;;22.17;57.41;93572.38;5092512;28;20101;-48
2022/05/31 06:45:06;;;;;;;7.85;3.67;;;;;;;22.33;56.62;93553.53;5092099;28;20024;-49
2022/05/31 06:47:32;;;;;;;6.97;4.30;;;;;;;22.55;56.29;93568.75;5092683;28;20028;-48
2022/05/31 06:49:57;;;;;;;5.97;4.05;;;;;;;22.77;56.14;93568.47;5092718;28;20506;-48
2022/05/31 06:57:52;;;;;;;11.32;4.75;;;;;;;22.91;55.51;93564.28;5092255;28;20101;-49
2022/05/31 07:00:19;;;;;;;6.78;4.38;;;;;;;23.11;56.26;93558.91;5100035;28;20488;-51
2022/05/31 07:02:45;;;;;;;6.05;3.97;;;;;;;23.41;55.34;93568.16;5112497;28;20032;-51
2022/05/31 07:05:11;;;;;;;8.18;3.80;;;;;;;23.71;54.38;93555.50;5112411;28;20027;-47
2022/05/31 07:07:37;;;;;;;4.47;3.83;;;;;;;23.94;51.08;93563.63;5112504;28;20019;-49
2022/05/31 07:10:03;;;;;;;4.05;3.38;;;;;;;24.50;50.02;93557.03;5112609;28;20015;-49
2022/05/31 07:12:29;;;;;;;6.07;3.80;;;;;;;25.12;48.81;93559.03;5112555;28;20023;-47
2022/05/31 07:14:55;;;;;;;8.02;3.42;;;;;;;25.58;47.61;93561.69;5110453;28;20031;-48
2022/05/31 07:17:21;;;;;;;6.72;3.65;;;;;;;25.83;46.06;93557.00;5112405;28;20042;-48
2022/05/31 07:19:46;;;;;;;4.60;3.15;;;;;;;26.53;44.77;93556.84;5112214;28;20529;-52
2022/05/31 07:22:12;;;;;;;4.90;3.50;;;;;;;27.70;41.27;93546.72;5111977;28;20019;-50
2022/05/31 07:24:37;;;;;;;4.05;3.28;;;;;;;28.68;39.67;93565.38;5112121;28;20081;-50
2022/05/31 07:27:03;;;;;;;6.45;3.40;;;;;;;29.97;38.08;93556.00;5111985;28;20032;-50
2022/05/31 07:29:28;;;;;;;3.03;2.75;;;;;;;31.48;34.51;93557.75;5112284;28;20027;-46
2022/05/31 07:31:54;;;;;;;5.68;3.00;;;;;;;32.69;32.39;93561.13;5112227;27;20080;-49
2022/05/31 07:34:23;;;;;;;5.05;2.80;;;;;;;34.01;30.37;93552.56;5111696;28;20489;-47
2022/05/31 07:36:49;;;;;;;8.65;3.05;;;;;;;34.83;28.88;93563.13;5112149;28;20039;-47
2022/05/31 07:39:17;;;;;;;2.88;2.65;;;;;;;36.00;27.06;93555.63;5112046;28;20097;-47
2022/05/31 07:41:43;;;;;;;6.40;2.75;;;;;;;36.60;26.59;93563.53;5112031;28;20102;-48
2022/05/31 07:44:09;;;;;;;3.72;2.70;;;;;;;36.73;25.34;93556.31;5111359;28;20055;-46
2022/05/31 07:46:35;;;;;;;7.60;2.83;;;;;;;37.41;25.08;93554.63;5111937;28;20027;-48
2022/05/31 07:49:01;;;;;;;4.65;2.22;;;;;;;37.91;23.58;93557.94;5111873;28;20407;-48
2022/05/31 07:51:27;;;;;;;3.50;2.08;;;;;;;38.35;23.43;93577.09;5111493;28;20024;-50
2022/05/31 07:53:53;;;;;;;4.95;2.17;;;;;;;38.37;22.83;93571.31;5111772;28;20103;-49
2022/05/31 07:56:19;;;;;;;4.43;2.13;;;;;;;38.62;22.80;93569.63;5111771;28;20480;-49
2022/05/31 07:58:46;;;;;;;3.13;1.88;;;;;;;38.58;22.34;93569.66;5111716;28;20125;-46
2022/05/31 08:01:19;;;;;;;4.30;2.40;;;;;;;38.87;23.56;93566.50;5111383;27;20401;-48
2022/05/31 08:03:45;;;;;;;3.78;2.35;;;;;;;39.35;22.59;93563.09;5111365;28;20023;-48
2022/05/31 08:06:16;;;;;;;4.47;2.28;;;;;;;39.78;22.54;93563.97;5111538;28;20031;-48
2022/05/31 08:08:42;;;;;;;2.90;2.10;;;;;;;39.89;21.98;93553.69;5111251;28;20061;-48
2022/05/31 08:11:13;;;;;;;4.97;2.40;;;;;;;39.89;22.06;93552.97;5111406;28;20076;-47
2022/05/31 08:13:39;;;;;;;4.47;2.08;;;;;;;40.23;20.83;93558.22;5111260;28;20035;-48
2022/05/31 08:16:07;;;;;;;6.43;3.38;;;;;;;40.47;21.62;93560.03;5111090;28;20519;-49
2022/05/31 08:18:32;;;;;;;6.47;2.28;;;;;;;40.68;20.82;93561.81;5111360;28;20075;-47
2022/05/31 08:21:10;;;;;;;7.15;2.03;;;;;;;40.51;19.77;93557.06;5111033;28;20473;-46
2022/05/31 08:23:36;;;;;;;3.00;2.40;;;;;;;40.40;20.45;93556.50;5111034;28;20098;-46
2022/05/31 08:26:02;;;;;;;7.60;2.47;;;;;;;40.83;19.91;93553.59;5110978;28;20055;-46
2022/05/31 08:28:28;;;;;;;23.83;3.55;;;;;;;40.82;20.37;93552.16;5110924;28;20024;-48
2022/05/31 08:30:57;;;;;;;6.38;2.78;;;;;;;41.00;19.70;93543.13;5095874;28;20028;-46
2022/05/31 08:33:24;;;;;;;3.08;2.30;;;;;;;39.88;19.61;93555.13;5090445;28;20028;-48
2022/05/31 08:35:50;;;;;;;5.25;2.25;;;;;;;40.41;20.83;93557.97;5090435;28;20411;-45
2022/05/31 08:38:16;;;;;;;4.68;2.25;;;;;;;40.56;19.47;93550.47;5089760;28;20028;-47
2022/05/31 08:41:06;;;;;;;7.82;2.85;;;;;;;40.73;20.22;93553.78;5090706;28;20024;-45
2022/05/31 08:43:45;;;;;;;5.15;2.40;;;;;;;41.14;20.23;93548.66;5090418;28;20020;-47
2022/05/31 08:46:23;;;;;;;3.08;2.55;;;;;;;40.88;20.78;93554.97;5106744;28;20034;-46
2022/05/31 08:48:59;;;;;;;;;;;;;;;40.59;21.04;93548.22;5111425;28;20035;-47
2022/05/31 08:51:58;;;;;;;3.75;2.63;;;;;;;39.14;22.13;93556.81;5110573;28;19907;-48
2022/05/31 08:57:36;;;;;;;6.13;3.00;;;;;;;36.94;25.68;93548.34;5110002;28;20031;-49
2022/05/31 09:00:19;;;;;;;3.72;2.50;;;;;;;37.69;23.28;93546.53;5109618;28;20073;-47
2022/05/31 09:02:47;;;;;;;8.18;2.63;;;;;;;38.60;23.14;93549.44;5109249;28;20028;-48
2022/05/31 09:05:25;;;;;;;4.78;2.47;;;;;;;39.39;22.46;93551.47;5109410;28;20083;-48
2022/05/31 09:07:58;;;;;;;4.78;2.40;;;;;;;39.96;19.94;93543.44;5110898;28;20040;-48
2022/05/31 09:10:43;;;;;;;4.93;2.55;;;;;;;40.41;19.65;93548.56;5110820;28;20015;-46
2022/05/31 09:13:29;;;;;;;2.80;2.20;;;;;;;39.54;19.54;93544.03;5110843;28;20446;-47
2022/05/31 09:16:02;;;;;;;6.68;6.18;;;;;;;39.92;19.63;93551.44;5109326;28;20077;-46
2022/05/31 09:18:35;;;;;;;9.30;2.15;;;;;;;40.26;20.62;93550.22;5109260;28;20024;-47
2022/05/31 09:21:02;;;;;;;6.75;2.40;;;;;;;38.88;20.41;93544.84;5110415;28;20516;-49
2022/05/31 09:23:30;;;;;;;5.40;2.45;;;;;;;37.18;21.00;93542.47;5109562;28;20024;-48
2022/05/31 09:26:18;;;;;;;4.53;2.33;;;;;;;36.01;23.92;93531.22;5104709;28;20024;-48
2022/05/31 09:28:52;;;;;;;5.40;2.15;;;;;;;37.02;20.46;93540.38;5089967;28;20465;-48
2022/05/31 09:31:40;;;;;;;2.10;1.40;;;;;;;37.67;19.15;93532.13;5089926;28;20088;-48
2022/05/31 09:34:11;;;;;;;3.55;1.70;;;;;;;38.73;19.45;93526.22;5089928;28;20111;-49
2022/05/31 09:36:52;;;;;;;2.90;1.45;;;;;;;39.38;19.66;93527.63;5090264;28;20028;-47
2022/05/31 09:39:42;;;;;;;3.33;1.90;;;;;;;40.06;19.32;93525.25;5092469;28;20028;-47
2022/05/31 09:42:21;;;;;;;5.28;1.77;;;;;;;40.53;18.24;93528.78;5093715;28;20054;-46
2022/05/31 09:44:51;;;;;;;3.05;1.40;;;;;;;39.98;18.49;93513.78;5098591;28;20023;-46
2022/05/31 09:47:19;;;;;;;4.32;1.55;;;;;;;39.71;18.06;93519.25;5112713;28;20492;-47
2022/05/31 09:49:47;;;;;;;6.93;1.83;;;;;;;40.51;17.90;93517.25;5113057;28;20077;-47
2022/05/31 09:52:21;;;;;;;4.78;1.98;;;;;;;41.13;17.67;93518.25;5113793;28;20030;-48
2022/05/31 09:58:19;;;;;;;5.15;1.50;;;;;;;38.43;19.82;93519.31;5113840;28;20035;-47
2022/05/31 10:01:00;;;;;;;4.72;1.50;;;;;;;39.20;19.74;93522.09;5112745;28;20106;-47
2022/05/31 10:03:46;;;;;;;2.53;1.70;;;;;;;40.01;19.49;93518.81;5113587;28;20035;-47
2022/05/31 10:06:19;;;;;;;4.35;1.65;;;;;;;39.85;19.75;93524.81;5113886;28;20102;-47
2022/05/31 10:08:49;;;;;;;4.13;1.65;;;;;;;39.89;18.79;93518.25;5113561;28;20032;-46
2022/05/31 10:11:21;;;;;;;3.95;1.50;;;;;;;40.45;17.14;93519.53;5113699;28;20020;-47
2022/05/31 10:13:59;;;;;;;2.30;1.55;;;;;;;40.72;17.86;93512.50;5113573;27;20049;-46
2022/05/31 10:16:30;;;;;;;4.38;1.60;;;;;;;41.00;16.73;93514.16;5113442;28;20028;-48
2022/05/31 10:19:01;;;;;;;4.55;1.33;;;;;;;40.90;17.57;93517.28;5113713;28;20027;-46
2022/05/31 10:21:34;;;;;;;7.38;1.70;;;;;;;41.48;16.19;93518.97;5113451;28;20054;-47
2022/05/31 10:24:05;;;;;;;7.93;1.80;;;;;;;41.86;15.44;93513.81;5093234;28;20256;-48
2022/05/31 10:26:33;;;;;;;4.82;1.73;;;;;;;41.64;17.50;93511.41;5093208;28;20043;-50
2022/05/31 10:29:00;;;;;;;3.70;1.70;;;;;;;41.95;16.74;93515.06;5092873;28;20043;-48
2022/05/31 10:31:37;;;;;;;2.85;1.80;;;;;;;42.18;15.55;93510.88;5092776;28;20405;-48
2022/05/31 10:34:26;;;;;;;4.10;1.60;;;;;;;42.43;14.56;93508.06;5093057;28;20106;-49
2022/05/31 10:36:55;;;;;;;4.97;1.60;;;;;;;42.40;15.31;93497.28;5091514;28;20084;-47
2022/05/31 10:39:26;;;;;;;9.40;1.77;;;;;;;42.12;15.71;93502.31;5092606;28;20028;-46
2022/05/31 10:41:54;;;;;;;2.90;1.20;;;;;;;41.99;15.75;93492.47;5092537;28;20016;-46
2022/05/31 10:44:52;;;;;;;3.88;1.25;;;;;;;41.90;13.51;93490.50;5090978;28;20028;-46
2022/05/31 10:47:20;;;;;;;2.70;1.17;;;;;;;42.02;13.85;93490.94;5085786;28;20040;-47
2022/05/31 10:49:46;;;;;;;3.13;1.40;;;;;;;41.72;17.23;93485.84;5092332;28;20024;-48
2022/05/31 10:52:46;;;;;;;3.80;2.40;;;;;;;41.51;18.84;93488.47;5091403;28;20092;-47
2022/05/31 10:55:47;;;;;;;6.22;1.95;;;;;;;40.80;18.91;93465.31;5091049;28;20118;-48
2022/05/31 10:58:40;;;;;;;4.78;1.73;;;;;;;39.82;19.77;93462.72;5091060;28;20088;-46
2022/05/31 11:01:39;;;;;;;8.05;2.78;;;;;;;39.30;18.40;93463.47;5092437;28;20397;-46
2022/05/31 11:04:39;;;;;;;6.47;2.03;;;;;;;37.71;20.96;93465.09;5092063;28;20051;-45
2022/05/31 11:07:04;;;;;;;4.30;2.15;;;;;;;37.25;22.31;93463.97;5091947;28;20398;-46
2022/05/31 11:12:45;;;;;;;3.80;1.90;;;;;;;36.61;23.93;93472.16;5092086;28;20182;-45
2022/05/31 11:15:25;;;;;;;5.43;2.95;;;;;;;35.05;25.94;93483.66;5091069;28;20416;-46
2022/05/31 11:18:09;;;;;;;4.13;2.70;;;;;;;33.20;30.66;93485.22;5092150;28;20020;-46
2022/05/31 11:21:04;;;;;;;5.20;3.00;;;;;;;32.47;30.93;93474.31;5092169;28;20028;-46
2022/05/31 11:23:48;;;;;;;6.25;3.60;;;;;;;31.98;31.30;93462.25;5071658;28;20040;-45
2022/05/31 11:26:31;;;;;;;3.47;2.53;;;;;;;32.04;27.28;93461.59;5091976;28;20070;-47
2022/05/31 11:29:09;;;;;;;4.18;2.70;;;;;;;31.72;27.12;93466.81;5091664;28;20035;-49
2022/05/31 11:31:43;;;;;;;4.95;2.20;;;;;;;31.94;28.54;93465.06;5090384;28;20028;-45
2022/05/31 11:34:29;;;;;;;4.35;2.90;;;;;;;32.15;31.35;93469.63;5090690;28;20058;-45
2022/05/31 11:37:20;;;;;;;6.43;4.28;;;;;;;32.11;28.58;93486.00;5090610;28;20055;-46
2022/05/31 11:40:01;;;;;;;15.18;4.72;;;;;;;31.42;35.19;93490.59;5091804;28;20467;-45
2022/05/31 11:42:30;;;;;;;12.82;3.70;;;;;;;30.49;37.35;93501.63;5090553;28;20043;-47
2022/05/31 11:45:13;;;;;;;4.32;3.40;;;;;;;29.11;40.44;93503.31;5098623;28;20400;-47
2022/05/31 11:47:46;;;;;;;21.63;4.82;;;;;;;29.03;41.35;93502.38;5111761;28;20031;-48
2022/05/31 11:50:39;;;;;;;6.47;3.88;;;;;;;29.25;42.91;93497.31;5111883;28;20405;-48
2022/05/31 11:53:29;;;;;;;6.50;3.58;;;;;;;29.05;40.12;93499.59;5111701;28;20027;-48
2022/05/31 11:56:03;;;;;;;5.22;2.97;;;;;;;28.82;37.70;93483.38;5111471;28;20493;-46
2022/05/31 11:58:40;;;;;;;4.90;3.08;;;;;;;28.65;36.28;93498.53;5111536;28;20030;-50
2022/05/31 12:01:34;;;;;;;6.78;2.90;;;;;;;28.45;35.50;93499.38;5096742;27;20039;-47
2022/05/31 12:04:11;;;;;;;4.65;2.95;;;;;;;28.10;37.28;93487.69;5091315;28;20134;-48
2022/05/31 12:06:43;;;;;;;5.18;2.80;;;;;;;27.76;35.85;93487.38;5089806;28;20024;-49
2022/05/31 12:09:17;;;;;;;3.70;2.50;;;;;;;27.91;33.37;93477.16;5089784;28;20024;-46
2022/05/31 12:12:14;;;;;;;3.28;2.13;;;;;;;28.26;35.11;93474.69;5089594;28;20020;-49
2022/05/31 12:14:45;;;;;;;7.60;2.65;;;;;;;28.58;31.22;93465.66;5095186;28;20534;-48
2022/05/31 12:17:11;;;;;;;3.75;2.30;;;;;;;28.82;33.75;93460.63;5111110;28;20035;-45